This is the latest recevied weather packets stored in our database for station/object PU5BHV. If no packets are shown the sender has not sent any weather packets the latest 1 day(s).
| Time | Temp. | Humidity | Pressure | Rain* | Wind** | Luminosity | Snow |
|---|---|---|---|---|---|---|---|
| 1778093400 | 29.44° C | 72% | 1016.1 hPa | 0 mm | - | 215 W/m² | - |
| 1778092187 | 30° C | 70% | 1016.2 hPa | 0 mm | - | 277 W/m² | - |
| 1778090976 | 29.44° C | 74% | 1016.5 hPa | 0 mm | - | 87 W/m² | - |
| 1778090672 | 30.56° C | 66% | 1016.5 hPa | 0 mm | - | 114 W/m² | - |
| 1778090066 | 30.56° C | 67% | 1016.7 hPa | 0 mm | - | 364 W/m² | - |
| 1778088854 | 31.67° C | 64% | 1016.7 hPa | 0 mm | - | 438 W/m² | - |
| 1778088248 | 31.67° C | 65% | 1016.7 hPa | 0 mm | - | 436 W/m² | - |
| 1778087036 | 31.11° C | 64% | 1017.3 hPa | 0 mm | - | 389 W/m² | - |
| 1778086735 | 31.11° C | 66% | 1017.1 hPa | 0 mm | - | 436 W/m² | - |
| 1778084913 | 29.44° C | 70% | 1018 hPa | 0 mm | - | 521 W/m² | - |
| 1778084309 | 30° C | 72% | 1018.2 hPa | 0 mm | - | 508 W/m² | - |
| 1778083400 | 28.89° C | 75% | 1018.5 hPa | 0 mm | - | 535 W/m² | - |
| 1778083099 | 28.89° C | 73% | 1018.7 hPa | 0 mm | - | 560 W/m² | - |
| 1778081365 | 27.22° C | 80% | 1019 hPa | 0 mm | - | 532 W/m² | - |
| 1778079850 | 26.67° C | 79% | 1019.8 hPa | 0 mm | - | 561 W/m² | - |
| 1778077731 | 24.44° C | 84% | 1020.6 hPa | 0 mm | - | 458 W/m² | - |
| 1778076219 | 22.78° C | 89% | 1021 hPa | 0 mm | - | 377 W/m² | - |
| 1778075916 | 22.78° C | 88% | 1021.2 hPa | 0 mm | - | 445 W/m² | - |
| 1778075309 | 22.22° C | 90% | 1021.6 hPa | 0 mm | - | 203 W/m² | - |
| 1778074096 | 21.67° C | 92% | 1021.6 hPa | 0 mm | - | 157 W/m² | - |
| 1778073491 | 21.67° C | 92% | 1021.4 hPa | 0 mm | - | 117 W/m² | - |
| 1778073187 | 21.67° C | 93% | 1021.5 hPa | 0 mm | - | 119 W/m² | - |
| 1778071372 | 21.11° C | 95% | 1021.6 hPa | 0 mm | - | 117 W/m² | - |
| 1778070768 | 20.56° C | 97% | 1021.4 hPa | 0 mm | - | 104 W/m² | - |
| 1778069556 | 20.56° C | 99% | 1021.7 hPa | 0 mm | - | 79 W/m² | - |
* Rain latest hour (hover to see other rain measurements)
** Current wind speed in m/s (hover to see current wind gust speed)